AGROMETEOROLOŠKI PORTAL

vinorodna pokrajina

Temelj dobrega kmetovanja

Pregled podatkov za lokacijo PTUJ - ARSO, meteorološka postaja 129

Pregled senzorjev na lokaciji

ID Ime Zadnja
vrednost
Datum in čas
meritve
(lokalni čas)
Tip
senzorja
2908 Padavine (mm) 0 mm 4.2.2023 23:30 ARSO
2916 Relativna zračna vlaga (2 m) (% RH) 49 % RH 4.2.2023 23:30 ARSO
2915 Temperatura (2 m) (°C) 0,8 °C 4.2.2023 23:30 ARSO
2920 Smer vetra (2 m) (°) 23 ° 4.2.2023 23:30 ARSO
2921 Hitrost vetra (2 m) (km/h) 14 km/h 4.2.2023 23:30 ARSO

Pregled podatkov zadnjih 24 ur

Zap.
št.
Datum in čas
(lokalni čas)
PTUJ - ARSO
Padavine Relativna
zračna
vlaga
(2
m)
Temperatura
(2
m)
Smer
vetra
(2
m)
Hitrost
vetra
(2
m)
1 4.2.2023 23:30 0 49 0,8 22,7 13,7
2 4.2.2023 23:00 0 51,7 0,6 32,7 10
3 4.2.2023 22:30 0 52 0,6 33,7 11,3
4 4.2.2023 22:00 0 57,3 0 43,3 7,7
5 4.2.2023 21:30 0 58 0,1 56,7 5,7
6 4.2.2023 21:00 0 57,7 0,4 50,3 8,3
7 4.2.2023 20:30 0 56 0,8 51 9,7
8 4.2.2023 20:00 0 54,7 1,1 53 8,7
9 4.2.2023 19:30 0 53 1,6 38 12,7
10 4.2.2023 19:00 0 52 2,1 36,7 13,3
11 4.2.2023 18:30 0 47,7 2,9 33,7 13,3
12 4.2.2023 18:00 0 42 3,7 5,7 17
13 4.2.2023 17:30 0 41,7 3,8 1 17
14 4.2.2023 17:00 0 40 4,3 355,7 19,7
15 4.2.2023 16:30 0 39 4,8 358 24,3
16 4.2.2023 16:00 0 40 5,3 353 23,3
17 4.2.2023 15:30 0 39,3 5,5 347,7 28
18 4.2.2023 15:00 0 38 5,7 341,3 32
19 4.2.2023 14:30 0 39 5,8 342,7 34,3
20 4.2.2023 14:00 0 39,7 6 338,3 36
21 4.2.2023 13:30 0 39,3 6,2 344,3 34,7
22 4.2.2023 13:00 0 41,7 6,2 348 38,7
23 4.2.2023 12:30 0 43,7 6,7 349 35,3
24 4.2.2023 12:00 0 44,3 7,2 347,3 31
25 4.2.2023 11:30 0 54,3 7,1 340 16,3
26 4.2.2023 11:00 0 65 6,9 319,3 16,3
27 4.2.2023 10:30 0 67,7 6,5 326,3 19,7
28 4.2.2023 10:00 0 70,3 6 313,7 22,7
29 4.2.2023 09:30 0 70,3 5,5 314 31
30 4.2.2023 09:00 0 61,7 5,9 333,3 25
31 4.2.2023 08:30 0 73,7 3,3 312,6 15
32 4.2.2023 08:00 0 83,7 1,6 298,4 9,3
33 4.2.2023 07:30 0 94,3 -0,7 235,1 6,3
34 4.2.2023 07:00 0 96 -1,4 247,7 3,3
35 4.2.2023 06:30 0 94,7 -1,7 299 4,3
36 4.2.2023 06:00 0 93 -1,2 294,1 2
37 4.2.2023 05:30 0 94,3 -0,4 132,8 3,3
38 4.2.2023 05:00 0 94 -0,3 153,2 3,3
39 4.2.2023 04:30 0 91,7 -0,2 301,8 2,3
40 4.2.2023 04:00 0 88,7 0,9 196,7 3,3
41 4.2.2023 03:30 0 87,7 1,7 159,3 3
42 4.2.2023 03:00 0 84 2,5 156,3 4
43 4.2.2023 02:30 0 80,3 3,5 114 5,3
44 4.2.2023 02:00 0 79,7 3,3 128,5 5
45 4.2.2023 01:30 0 75,3 4,3 140 4,3
46 4.2.2023 01:00 0 69,5 6 310,5 12
47 4.2.2023 00:30 0 72 5,8 317,3 14
48 4.2.2023 00:00 0 77 4,1 303,8 8,7